Terminal Aerodrome Forecast
Issued by NWS

Home | Current Version | Previous Version | Text Only | Print | Product List | Glossary On
Versions: 1 2 3 4 5 6 7 8 9 10 11 12 13 14 15 16 17 18 19
000
FTUS46 KMFR 211136
TAFOTH
TAF
KOTH 211136Z 2112/2212 15007KT P6SM -SHRA SCT025 BKN035 OVC070
      WS020/19040KT
     FM211800 18015G25KT P6SM -RA BKN035 OVC050 WS020/19050KT
     FM220500 20012G20KT P6SM OVC030 WS020/19050KT
     FM220800 19008KT 6SM -RA OVC050=

USA.gov is the U.S. government's official web portal to all federal, state and local government web resources and services.